sensor_id;sensor_type;location;lat;lon;timestamp;temperature;humidity
25568;DHT22;13455;51.480;7.594;2023-01-29T00:02:21;-2.20;99.90
25568;DHT22;13455;51.480;7.594;2023-01-29T00:04:46;-2.20;99.90
25568;DHT22;13455;51.480;7.594;2023-01-29T00:07:12;-2.30;99.90
25568;DHT22;13455;51.480;7.594;2023-01-29T00:09:38;-2.30;99.90
25568;DHT22;13455;51.480;7.594;2023-01-29T00:12:04;-2.30;99.90
25568;DHT22;13455;51.480;7.594;2023-01-29T00:14:33;-2.30;99.90
25568;DHT22;13455;51.480;7.594;2023-01-29T00:16:58;-2.30;99.90
25568;DHT22;13455;51.480;7.594;2023-01-29T00:19:24;-2.30;99.90
25568;DHT22;13455;51.480;7.594;2023-01-29T00:21:50;-2.30;99.90
25568;DHT22;13455;51.480;7.594;2023-01-29T00:24:15;-2.40;99.90
25568;DHT22;13455;51.480;7.594;2023-01-29T00:26:41;-2.50;99.90
25568;DHT22;13455;51.480;7.594;2023-01-29T00:29:07;-2.40;99.90
25568;DHT22;13455;51.480;7.594;2023-01-29T00:31:33;-2.40;99.90
25568;DHT22;13455;51.480;7.594;2023-01-29T00:33:59;-2.40;99.90
25568;DHT22;13455;51.480;7.594;2023-01-29T00:36:25;-2.40;99.90
25568;DHT22;13455;51.480;7.594;2023-01-29T00:38:59;-2.40;99.90
25568;DHT22;13455;51.480;7.594;2023-01-29T00:41:28;-2.40;99.90
25568;DHT22;13455;51.480;7.594;2023-01-29T00:44:13;-2.40;99.90
25568;DHT22;13455;51.480;7.594;2023-01-29T00:46:57;-2.50;99.90
25568;DHT22;13455;51.480;7.594;2023-01-29T00:49:23;-2.50;99.90
25568;DHT22;13455;51.480;7.594;2023-01-29T00:51:48;-2.50;99.90
25568;DHT22;13455;51.480;7.594;2023-01-29T00:54:34;-2.50;99.90
25568;DHT22;13455;51.480;7.594;2023-01-29T00:57:01;-2.50;99.90
25568;DHT22;13455;51.480;7.594;2023-01-29T00:59:27;-2.40;99.90
25568;DHT22;13455;51.480;7.594;2023-01-29T01:01:53;-2.50;99.90
25568;DHT22;13455;51.480;7.594;2023-01-29T01:04:37;-2.50;99.90
25568;DHT22;13455;51.480;7.594;2023-01-29T09:17:46;0.10;99.90
25568;DHT22;13455;51.480;7.594;2023-01-29T09:20:14;0.00;99.90
25568;DHT22;13455;51.480;7.594;2023-01-29T09:22:40;0.00;99.90
25568;DHT22;13455;51.480;7.594;2023-01-29T09:25:06;0.00;99.90
25568;DHT22;13455;51.480;7.594;2023-01-29T09:27:31;0.10;99.90
25568;DHT22;13455;51.480;7.594;2023-01-29T09:29:57;0.10;99.90
25568;DHT22;13455;51.480;7.594;2023-01-29T09:32:22;0.20;99.90
25568;DHT22;13455;51.480;7.594;2023-01-29T09:34:48;0.20;99.90
25568;DHT22;13455;51.480;7.594;2023-01-29T09:37:14;0.20;99.90
25568;DHT22;13455;51.480;7.594;2023-01-29T09:39:42;0.30;99.90
25568;DHT22;13455;51.480;7.594;2023-01-29T09:42:27;0.40;99.90
25568;DHT22;13455;51.480;7.594;2023-01-29T09:45:03;0.50;99.90
25568;DHT22;13455;51.480;7.594;2023-01-29T09:47:33;0.60;99.90
25568;DHT22;13455;51.480;7.594;2023-01-29T09:52:35;0.70;99.90
25568;DHT22;13455;51.480;7.594;2023-01-29T09:55:09;0.70;99.90
25568;DHT22;13455;51.480;7.594;2023-01-29T09:57:44;0.80;99.90
25568;DHT22;13455;51.480;7.594;2023-01-29T10:00:27;0.80;99.90
25568;DHT22;13455;51.480;7.594;2023-01-29T10:11:31;0.90;99.90
25568;DHT22;13455;51.480;7.594;2023-01-29T10:17:35;1.00;99.90
25568;DHT22;13455;51.480;7.594;2023-01-29T10:20:39;1.00;99.90
25568;DHT22;13455;51.480;7.594;2023-01-29T10:25:27;1.10;99.90
25568;DHT22;13455;51.480;7.594;2023-01-29T10:27:55;1.20;99.90
25568;DHT22;13455;51.480;7.594;2023-01-29T10:32:48;1.30;99.90
25568;DHT22;13455;51.480;7.594;2023-01-29T10:35:22;1.40;99.90
25568;DHT22;13455;51.480;7.594;2023-01-29T10:37:52;1.40;99.90
25568;DHT22;13455;51.480;7.594;2023-01-29T10:40:28;1.50;99.90
25568;DHT22;13455;51.480;7.594;2023-01-29T10:45:45;1.50;99.90
25568;DHT22;13455;51.480;7.594;2023-01-29T10:54:17;1.60;99.90
25568;DHT22;13455;51.480;7.594;2023-01-29T11:01:58;1.80;99.90
25568;DHT22;13455;51.480;7.594;2023-01-29T11:04:26;1.80;99.90
25568;DHT22;13455;51.480;7.594;2023-01-29T11:06:52;1.90;99.90
25568;DHT22;13455;51.480;7.594;2023-01-29T11:09:33;1.90;99.90
25568;DHT22;13455;51.480;7.594;2023-01-29T11:14:34;2.00;99.90
25568;DHT22;13455;51.480;7.594;2023-01-29T11:17:03;2.10;99.90
25568;DHT22;13455;51.480;7.594;2023-01-29T11:19:38;2.20;99.90
25568;DHT22;13455;51.480;7.594;2023-01-29T11:22:04;2.20;99.90
25568;DHT22;13455;51.480;7.594;2023-01-29T11:46:44;2.50;99.90
25568;DHT22;13455;51.480;7.594;2023-01-29T11:51:51;2.40;99.90
25568;DHT22;13455;51.480;7.594;2023-01-29T11:54:18;2.30;99.90
25568;DHT22;13455;51.480;7.594;2023-01-29T12:06:48;2.60;99.90
25568;DHT22;13455;51.480;7.594;2023-01-29T12:17:18;2.60;99.90
25568;DHT22;13455;51.480;7.594;2023-01-29T12:19:55;2.90;99.90
25568;DHT22;13455;51.480;7.594;2023-01-29T12:22:52;2.60;99.90
25568;DHT22;13455;51.480;7.594;2023-01-29T12:30:37;2.90;99.90
25568;DHT22;13455;51.480;7.594;2023-01-29T12:33:18;2.80;99.90
25568;DHT22;13455;51.480;7.594;2023-01-29T12:38:21;2.90;99.90
25568;DHT22;13455;51.480;7.594;2023-01-29T12:40:51;3.10;99.90
25568;DHT22;13455;51.480;7.594;2023-01-29T12:46:08;3.00;99.90
25568;DHT22;13455;51.480;7.594;2023-01-29T12:48:38;2.70;99.90
25568;DHT22;13455;51.480;7.594;2023-01-29T12:51:10;2.70;99.90
25568;DHT22;13455;51.480;7.594;2023-01-29T12:53:46;2.60;99.90
25568;DHT22;13455;51.480;7.594;2023-01-29T12:56:40;2.50;99.90
25568;DHT22;13455;51.480;7.594;2023-01-29T12:59:12;2.80;99.90
25568;DHT22;13455;51.480;7.594;2023-01-29T13:01:51;3.00;99.90
25568;DHT22;13455;51.480;7.594;2023-01-29T13:06:59;2.80;99.90
25568;DHT22;13455;51.480;7.594;2023-01-29T13:09:28;2.80;99.90
25568;DHT22;13455;51.480;7.594;2023-01-29T13:12:01;2.70;99.90
25568;DHT22;13455;51.480;7.594;2023-01-29T13:14:40;2.80;99.90
25568;DHT22;13455;51.480;7.594;2023-01-29T13:17:43;3.10;99.90
25568;DHT22;13455;51.480;7.594;2023-01-29T13:22:42;2.70;99.90
25568;DHT22;13455;51.480;7.594;2023-01-29T13:25:15;2.90;99.90
25568;DHT22;13455;51.480;7.594;2023-01-29T13:27:42;3.00;99.90
25568;DHT22;13455;51.480;7.594;2023-01-29T13:30:23;2.80;99.90
25568;DHT22;13455;51.480;7.594;2023-01-29T13:32:51;3.00;99.90
25568;DHT22;13455;51.480;7.594;2023-01-29T13:35:21;2.70;99.90
25568;DHT22;13455;51.480;7.594;2023-01-29T13:37:52;2.90;99.90
25568;DHT22;13455;51.480;7.594;2023-01-29T13:40:29;2.70;99.90
25568;DHT22;13455;51.480;7.594;2023-01-29T13:42:57;2.70;99.90
25568;DHT22;13455;51.480;7.594;2023-01-29T13:48:16;2.70;99.90
25568;DHT22;13455;51.480;7.594;2023-01-29T13:50:44;3.00;99.90
25568;DHT22;13455;51.480;7.594;2023-01-29T13:53:31;2.90;99.90
25568;DHT22;13455;51.480;7.594;2023-01-29T13:59:00;2.80;99.90
25568;DHT22;13455;51.480;7.594;2023-01-29T14:04:29;2.90;99.90
25568;DHT22;13455;51.480;7.594;2023-01-29T14:07:00;2.80;99.90
25568;DHT22;13455;51.480;7.594;2023-01-29T14:17:14;2.90;99.90
25568;DHT22;13455;51.480;7.594;2023-01-29T14:22:26;3.00;99.90
25568;DHT22;13455;51.480;7.594;2023-01-29T14:27:21;2.90;99.90
25568;DHT22;13455;51.480;7.594;2023-01-29T14:29:49;2.80;99.90
25568;DHT22;13455;51.480;7.594;2023-01-29T14:32:22;3.20;99.90
25568;DHT22;13455;51.480;7.594;2023-01-29T14:37:26;2.80;99.90
25568;DHT22;13455;51.480;7.594;2023-01-29T14:40:28;2.90;99.90
25568;DHT22;13455;51.480;7.594;2023-01-29T14:45:36;2.80;99.90
25568;DHT22;13455;51.480;7.594;2023-01-29T14:48:03;2.80;99.90
25568;DHT22;13455;51.480;7.594;2023-01-29T14:50:44;2.70;99.90
25568;DHT22;13455;51.480;7.594;2023-01-29T14:53:47;2.90;99.90
25568;DHT22;13455;51.480;7.594;2023-01-29T14:58:53;2.50;99.90
25568;DHT22;13455;51.480;7.594;2023-01-29T15:01:24;2.60;99.90
25568;DHT22;13455;51.480;7.594;2023-01-29T15:06:44;2.90;99.90
25568;DHT22;13455;51.480;7.594;2023-01-29T15:18:11;2.40;99.90
25568;DHT22;13455;51.480;7.594;2023-01-29T15:20:42;2.30;99.90
25568;DHT22;13455;51.480;7.594;2023-01-29T15:26:01;2.50;99.90
25568;DHT22;13455;51.480;7.594;2023-01-29T15:28:32;2.50;99.90
25568;DHT22;13455;51.480;7.594;2023-01-29T15:31:03;2.60;99.90
25568;DHT22;13455;51.480;7.594;2023-01-29T15:33:30;2.60;99.90
25568;DHT22;13455;51.480;7.594;2023-01-29T15:36:04;2.50;99.90
25568;DHT22;13455;51.480;7.594;2023-01-29T15:38:30;2.30;99.90
25568;DHT22;13455;51.480;7.594;2023-01-29T15:40:58;2.50;99.90
25568;DHT22;13455;51.480;7.594;2023-01-29T15:43:35;2.60;99.90
25568;DHT22;13455;51.480;7.594;2023-01-29T15:46:09;2.40;99.90
25568;DHT22;13455;51.480;7.594;2023-01-29T15:48:41;2.60;99.90
25568;DHT22;13455;51.480;7.594;2023-01-29T15:51:11;2.50;99.90
25568;DHT22;13455;51.480;7.594;2023-01-29T15:56:10;2.40;99.90
25568;DHT22;13455;51.480;7.594;2023-01-29T15:58:37;2.40;99.90
25568;DHT22;13455;51.480;7.594;2023-01-29T16:01:04;2.60;99.90
25568;DHT22;13455;51.480;7.594;2023-01-29T16:03:31;2.20;99.90
25568;DHT22;13455;51.480;7.594;2023-01-29T16:05:58;2.40;99.90
25568;DHT22;13455;51.480;7.594;2023-01-29T16:08:26;2.40;99.90
25568;DHT22;13455;51.480;7.594;2023-01-29T16:10:55;2.50;99.90
25568;DHT22;13455;51.480;7.594;2023-01-29T16:13:29;2.70;99.90
25568;DHT22;13455;51.480;7.594;2023-01-29T16:16:03;2.50;99.90
25568;DHT22;13455;51.480;7.594;2023-01-29T16:18:38;2.40;99.90
25568;DHT22;13455;51.480;7.594;2023-01-29T16:21:09;2.40;99.90
25568;DHT22;13455;51.480;7.594;2023-01-29T16:23:44;2.50;99.90
25568;DHT22;13455;51.480;7.594;2023-01-29T16:26:20;2.30;99.90
25568;DHT22;13455;51.480;7.594;2023-01-29T16:28:48;2.50;99.90
25568;DHT22;13455;51.480;7.594;2023-01-29T16:31:22;2.30;99.90
25568;DHT22;13455;51.480;7.594;2023-01-29T16:33:48;2.40;99.90
25568;DHT22;13455;51.480;7.594;2023-01-29T16:36:19;2.40;99.90
25568;DHT22;13455;51.480;7.594;2023-01-29T16:38:52;2.40;99.90
25568;DHT22;13455;51.480;7.594;2023-01-29T16:48:56;2.30;99.90
25568;DHT22;13455;51.480;7.594;2023-01-29T16:54:20;2.40;99.90
25568;DHT22;13455;51.480;7.594;2023-01-29T16:56:50;2.20;99.90
25568;DHT22;13455;51.480;7.594;2023-01-29T17:01:53;2.40;99.90
25568;DHT22;13455;51.480;7.594;2023-01-29T17:04:20;2.40;99.90
25568;DHT22;13455;51.480;7.594;2023-01-29T17:06:49;2.80;99.90
25568;DHT22;13455;51.480;7.594;2023-01-29T17:09:33;2.50;99.90
25568;DHT22;13455;51.480;7.594;2023-01-29T17:12:04;2.10;99.90
25568;DHT22;13455;51.480;7.594;2023-01-29T17:14:31;2.30;99.90
25568;DHT22;13455;51.480;7.594;2023-01-29T17:19:29;2.40;99.90
25568;DHT22;13455;51.480;7.594;2023-01-29T17:21:58;2.60;99.90
25568;DHT22;13455;51.480;7.594;2023-01-29T17:24:26;2.40;99.90
25568;DHT22;13455;51.480;7.594;2023-01-29T17:26:52;2.30;99.90
25568;DHT22;13455;51.480;7.594;2023-01-29T17:29:20;2.30;99.90
25568;DHT22;13455;51.480;7.594;2023-01-29T17:31:47;2.40;99.90
25568;DHT22;13455;51.480;7.594;2023-01-29T17:34:14;2.30;99.90
25568;DHT22;13455;51.480;7.594;2023-01-29T17:36:44;2.70;99.90
25568;DHT22;13455;51.480;7.594;2023-01-29T17:39:19;2.30;99.90
25568;DHT22;13455;51.480;7.594;2023-01-29T17:41:53;2.40;99.90
25568;DHT22;13455;51.480;7.594;2023-01-29T17:44:20;2.40;99.90
25568;DHT22;13455;51.480;7.594;2023-01-29T17:46:46;2.50;99.90
25568;DHT22;13455;51.480;7.594;2023-01-29T17:49:29;2.30;99.90
25568;DHT22;13455;51.480;7.594;2023-01-29T17:51:57;2.60;99.90
25568;DHT22;13455;51.480;7.594;2023-01-29T17:54:23;2.70;99.90
25568;DHT22;13455;51.480;7.594;2023-01-29T17:56:51;2.50;99.90
25568;DHT22;13455;51.480;7.594;2023-01-29T17:59:18;2.20;99.90
25568;DHT22;13455;51.480;7.594;2023-01-29T18:01:45;2.60;99.90
25568;DHT22;13455;51.480;7.594;2023-01-29T18:04:11;2.30;99.90
25568;DHT22;13455;51.480;7.594;2023-01-29T18:06:38;2.40;99.90
25568;DHT22;13455;51.480;7.594;2023-01-29T18:11:31;2.30;99.90
25568;DHT22;13455;51.480;7.594;2023-01-29T18:13:57;2.30;99.90
25568;DHT22;13455;51.480;7.594;2023-01-29T18:16:23;2.20;99.90
25568;DHT22;13455;51.480;7.594;2023-01-29T18:18:49;2.30;99.90
25568;DHT22;13455;51.480;7.594;2023-01-29T18:21:15;2.50;99.90
25568;DHT22;13455;51.480;7.594;2023-01-29T18:23:41;2.50;99.90
25568;DHT22;13455;51.480;7.594;2023-01-29T18:26:10;2.50;99.90
25568;DHT22;13455;51.480;7.594;2023-01-29T18:28:35;2.20;99.90
25568;DHT22;13455;51.480;7.594;2023-01-29T18:31:04;2.60;99.90
25568;DHT22;13455;51.480;7.594;2023-01-29T18:33:30;2.30;99.90
25568;DHT22;13455;51.480;7.594;2023-01-29T18:35:56;2.40;99.90
25568;DHT22;13455;51.480;7.594;2023-01-29T18:38:22;2.30;99.90
25568;DHT22;13455;51.480;7.594;2023-01-29T18:40:48;2.40;99.90
25568;DHT22;13455;51.480;7.594;2023-01-29T18:43:15;2.50;99.90
25568;DHT22;13455;51.480;7.594;2023-01-29T18:48:07;2.80;99.90
25568;DHT22;13455;51.480;7.594;2023-01-29T18:50:33;2.40;99.90
25568;DHT22;13455;51.480;7.594;2023-01-29T18:52:59;2.30;99.90
25568;DHT22;13455;51.480;7.594;2023-01-29T18:55:25;2.20;99.90
25568;DHT22;13455;51.480;7.594;2023-01-29T18:57:55;2.30;99.90
25568;DHT22;13455;51.480;7.594;2023-01-29T19:02:47;2.10;99.90
25568;DHT22;13455;51.480;7.594;2023-01-29T19:05:14;2.20;99.90
25568;DHT22;13455;51.480;7.594;2023-01-29T19:07:41;2.10;99.90
25568;DHT22;13455;51.480;7.594;2023-01-29T19:10:07;2.10;99.90
25568;DHT22;13455;51.480;7.594;2023-01-29T19:12:37;2.10;99.90
25568;DHT22;13455;51.480;7.594;2023-01-29T19:15:06;2.20;99.90
25568;DHT22;13455;51.480;7.594;2023-01-29T19:17:31;2.10;99.90
25568;DHT22;13455;51.480;7.594;2023-01-29T19:19:57;2.10;99.90
25568;DHT22;13455;51.480;7.594;2023-01-29T19:22:27;2.10;99.90
25568;DHT22;13455;51.480;7.594;2023-01-29T19:24:52;2.10;99.90
25568;DHT22;13455;51.480;7.594;2023-01-29T19:27:18;2.10;99.90
25568;DHT22;13455;51.480;7.594;2023-01-29T19:29:44;2.10;99.90
25568;DHT22;13455;51.480;7.594;2023-01-29T19:32:09;2.10;99.90
25568;DHT22;13455;51.480;7.594;2023-01-29T19:34:36;2.20;99.90
25568;DHT22;13455;51.480;7.594;2023-01-29T19:37:01;2.10;99.90
25568;DHT22;13455;51.480;7.594;2023-01-29T19:41:58;2.20;99.90
25568;DHT22;13455;51.480;7.594;2023-01-29T19:44:24;2.10;99.90
25568;DHT22;13455;51.480;7.594;2023-01-29T19:46:49;2.30;99.90
25568;DHT22;13455;51.480;7.594;2023-01-29T19:49:15;2.30;99.90
25568;DHT22;13455;51.480;7.594;2023-01-29T19:51:41;2.40;99.90
25568;DHT22;13455;51.480;7.594;2023-01-29T19:54:08;2.20;99.90
25568;DHT22;13455;51.480;7.594;2023-01-29T19:56:34;2.20;99.90
25568;DHT22;13455;51.480;7.594;2023-01-29T20:21:05;2.30;99.90
25568;DHT22;13455;51.480;7.594;2023-01-29T20:33:22;2.00;99.90
25568;DHT22;13455;51.480;7.594;2023-01-29T20:35:59;2.10;99.90
25568;DHT22;13455;51.480;7.594;2023-01-29T20:45:58;2.30;99.90
25568;DHT22;13455;51.480;7.594;2023-01-29T20:50:50;2.20;99.90
25568;DHT22;13455;51.480;7.594;2023-01-29T20:55:43;2.20;99.90
25568;DHT22;13455;51.480;7.594;2023-01-29T20:58:09;2.10;99.90
25568;DHT22;13455;51.480;7.594;2023-01-29T21:00:35;2.10;99.90
25568;DHT22;13455;51.480;7.594;2023-01-29T21:05:27;2.20;99.90
25568;DHT22;13455;51.480;7.594;2023-01-29T21:07:53;2.30;99.90
25568;DHT22;13455;51.480;7.594;2023-01-29T21:10:18;2.20;99.90
25568;DHT22;13455;51.480;7.594;2023-01-29T21:12:44;2.30;99.90
25568;DHT22;13455;51.480;7.594;2023-01-29T21:15:10;2.50;99.90
25568;DHT22;13455;51.480;7.594;2023-01-29T21:20:02;2.30;99.90
25568;DHT22;13455;51.480;7.594;2023-01-29T21:22:29;2.30;99.90
25568;DHT22;13455;51.480;7.594;2023-01-29T21:24:55;2.40;99.90
25568;DHT22;13455;51.480;7.594;2023-01-29T22:21:20;2.80;99.90
25568;DHT22;13455;51.480;7.594;2023-01-29T22:23:47;2.70;99.90
25568;DHT22;13455;51.480;7.594;2023-01-29T22:26:13;2.80;99.90
25568;DHT22;13455;51.480;7.594;2023-01-29T22:28:39;2.70;99.90
25568;DHT22;13455;51.480;7.594;2023-01-29T22:31:05;2.60;99.90
25568;DHT22;13455;51.480;7.594;2023-01-29T22:33:31;2.60;99.90
25568;DHT22;13455;51.480;7.594;2023-01-29T22:35:58;2.70;99.90
25568;DHT22;13455;51.480;7.594;2023-01-29T22:38:23;2.60;99.90
25568;DHT22;13455;51.480;7.594;2023-01-29T22:40:50;2.70;99.90
25568;DHT22;13455;51.480;7.594;2023-01-29T22:43:16;2.70;99.90
25568;DHT22;13455;51.480;7.594;2023-01-29T22:45:42;2.70;99.90
25568;DHT22;13455;51.480;7.594;2023-01-29T22:48:07;2.70;99.90
25568;DHT22;13455;51.480;7.594;2023-01-29T22:50:33;2.70;99.90
25568;DHT22;13455;51.480;7.594;2023-01-29T22:52:58;2.70;99.90
25568;DHT22;13455;51.480;7.594;2023-01-29T22:55:24;2.70;99.90
25568;DHT22;13455;51.480;7.594;2023-01-29T22:57:50;2.80;99.90
25568;DHT22;13455;51.480;7.594;2023-01-29T23:00:16;2.80;99.90
25568;DHT22;13455;51.480;7.594;2023-01-29T23:02:42;2.80;99.90
25568;DHT22;13455;51.480;7.594;2023-01-29T23:05:07;2.70;99.90
25568;DHT22;13455;51.480;7.594;2023-01-29T23:07:33;1.80;99.90
25568;DHT22;13455;51.480;7.594;2023-01-29T23:09:59;2.80;99.90
25568;DHT22;13455;51.480;7.594;2023-01-29T23:12:24;2.80;99.90
25568;DHT22;13455;51.480;7.594;2023-01-29T23:14:50;2.80;99.90
25568;DHT22;13455;51.480;7.594;2023-01-29T23:17:15;2.80;99.90
25568;DHT22;13455;51.480;7.594;2023-01-29T23:19:41;2.80;99.90
25568;DHT22;13455;51.480;7.594;2023-01-29T23:22:07;2.80;99.90
25568;DHT22;13455;51.480;7.594;2023-01-29T23:24:32;2.90;99.90
25568;DHT22;13455;51.480;7.594;2023-01-29T23:26:58;2.80;99.90
25568;DHT22;13455;51.480;7.594;2023-01-29T23:29:39;2.80;99.90
25568;DHT22;13455;51.480;7.594;2023-01-29T23:32:05;2.80;99.90
25568;DHT22;13455;51.480;7.594;2023-01-29T23:34:31;2.80;99.90
25568;DHT22;13455;51.480;7.594;2023-01-29T23:36:57;2.80;99.90
25568;DHT22;13455;51.480;7.594;2023-01-29T23:39:23;2.80;99.90
25568;DHT22;13455;51.480;7.594;2023-01-29T23:41:48;2.80;99.90
25568;DHT22;13455;51.480;7.594;2023-01-29T23:44:14;3.70;99.90
25568;DHT22;13455;51.480;7.594;2023-01-29T23:46:39;2.80;99.90
25568;DHT22;13455;51.480;7.594;2023-01-29T23:49:05;2.80;99.90
25568;DHT22;13455;51.480;7.594;2023-01-29T23:51:31;2.80;99.90
25568;DHT22;13455;51.480;7.594;2023-01-29T23:53:57;2.80;99.90
25568;DHT22;13455;51.480;7.594;2023-01-29T23:56:23;2.90;99.90
25568;DHT22;13455;51.480;7.594;2023-01-29T23:58:53;2.90;99.90
